Time;durP1;ratioP1;P1;durP2;ratioP2;P2;SDS_P1;SDS_P2;PMS_P1;PMS_P2;Temp;Humidity;BMP_temperature;BMP_pressure;BME280_temperature;BME280_humidity;BME280_pressure;Samples;Min_cycle;Max_cycle;Signal;HPM_P1;HPM_P2
2022/12/24 00:00:20;;;;;;;2.00;1.55;;;;;;;;;;2077331;28;20033;-87
2022/12/24 00:01:39;;;;;;;3.58;2.10;;;;;;;;;;2076540;28;20037;-86
2022/12/24 00:02:58;;;;;;;4.80;1.90;;;;;;;;;;2076686;28;20022;-86
2022/12/24 00:04:17;;;;;;;2.70;1.60;;;;;;;;;;2077860;28;20526;-87
2022/12/24 00:05:36;;;;;;;4.05;1.67;;;;;;;;;;2077517;28;20037;-85
2022/12/24 00:06:55;;;;;;;3.53;1.45;;;;;;;;;;2077490;28;20029;-86
2022/12/24 00:08:14;;;;;;;2.03;1.45;;;;;;;;;;2077277;28;20026;-86
2022/12/24 00:09:34;;;;;;;2.42;1.50;;;;;;;;;;2076846;28;20033;-87
2022/12/24 00:10:53;;;;;;;3.88;1.60;;;;;;;;;;2085082;28;20037;-87
2022/12/24 00:12:11;;;;;;;2.67;1.95;;;;;;;;;;2080512;28;20490;-86
2022/12/24 00:13:30;;;;;;;1.55;1.35;;;;;;;;;;2079491;28;20033;-86
2022/12/24 00:14:49;;;;;;;4.38;1.60;;;;;;;;;;2080825;28;20439;-86
2022/12/24 00:16:09;;;;;;;3.28;1.50;;;;;;;;;;2080527;28;20068;-86
2022/12/24 00:17:28;;;;;;;2.33;1.42;;;;;;;;;;2077500;28;20033;-85
2022/12/24 00:18:47;;;;;;;2.10;1.58;;;;;;;;;;2077998;28;20033;-86
2022/12/24 00:20:06;;;;;;;2.50;1.42;;;;;;;;;;2077294;28;20037;-86
2022/12/24 00:21:25;;;;;;;2.05;1.17;;;;;;;;;;2076597;28;20018;-86
2022/12/24 00:22:44;;;;;;;1.88;1.40;;;;;;;;;;2077291;28;20033;-85
2022/12/24 00:24:04;;;;;;;4.03;1.52;;;;;;;;;;2081157;28;20483;-86
2022/12/24 00:25:23;;;;;;;2.15;1.73;;;;;;;;;;2080592;28;20113;-86
2022/12/24 00:26:42;;;;;;;5.95;2.10;;;;;;;;;;2077433;28;20104;-86
2022/12/24 00:28:01;;;;;;;1.90;1.48;;;;;;;;;;2080354;28;20418;-86
2022/12/24 00:29:20;;;;;;;1.60;1.50;;;;;;;;;;2076872;28;20045;-86
2022/12/24 00:30:39;;;;;;;1.70;1.60;;;;;;;;;;2076939;28;20110;-86
2022/12/24 00:31:58;;;;;;;2.28;1.52;;;;;;;;;;2077407;28;20041;-87
2022/12/24 00:33:17;;;;;;;2.53;1.40;;;;;;;;;;2077176;28;20030;-87
2022/12/24 00:34:36;;;;;;;1.85;1.60;;;;;;;;;;2077648;28;20029;-86
2022/12/24 00:35:55;;;;;;;2.90;1.65;;;;;;;;;;2077529;28;20109;-87
2022/12/24 00:37:16;;;;;;;4.45;1.63;;;;;;;;;;2076695;28;20057;-86
2022/12/24 00:38:36;;;;;;;3.88;1.60;;;;;;;;;;2080229;28;20033;-85
2022/12/24 00:39:55;;;;;;;1.77;1.60;;;;;;;;;;2079717;28;20041;-87
2022/12/24 00:41:29;;;;;;;4.63;1.95;;;;;;;;;;2080496;28;20068;-86
2022/12/24 00:42:48;;;;;;;2.33;2.10;;;;;;;;;;2078570;28;20021;-85
2022/12/24 00:44:10;;;;;;;4.05;1.75;;;;;;;;;;2077544;28;20033;-86
2022/12/24 00:45:29;;;;;;;3.58;2.05;;;;;;;;;;2079580;28;20030;-86
2022/12/24 00:46:48;;;;;;;4.05;1.70;;;;;;;;;;2076798;28;20030;-87
2022/12/24 00:48:07;;;;;;;2.80;2.35;;;;;;;;;;2085242;28;20074;-86
2022/12/24 00:49:26;;;;;;;2.67;2.22;;;;;;;;;;2079545;28;20026;-86
2022/12/24 00:50:45;;;;;;;3.60;1.70;;;;;;;;;;2079738;28;20021;-87
2022/12/24 00:52:04;;;;;;;1.95;1.60;;;;;;;;;;2076312;28;20037;-86
2022/12/24 00:53:23;;;;;;;3.55;2.10;;;;;;;;;;2076258;28;20025;-86
2022/12/24 00:54:42;;;;;;;2.67;1.77;;;;;;;;;;2079291;28;20513;-87
2022/12/24 00:56:00;;;;;;;2.50;1.50;;;;;;;;;;2078487;28;20494;-86
2022/12/24 00:57:19;;;;;;;2.50;1.65;;;;;;;;;;2078828;28;20030;-87
2022/12/24 00:58:38;;;;;;;2.97;1.58;;;;;;;;;;2085667;28;20065;-87
2022/12/24 00:59:57;;;;;;;2.40;1.70;;;;;;;;;;2082296;28;20029;-87
2022/12/24 01:01:16;;;;;;;3.10;1.83;;;;;;;;;;2077808;28;20022;-87
2022/12/24 01:02:35;;;;;;;4.75;1.70;;;;;;;;;;2078948;28;20621;-87
2022/12/24 01:05:33;;;;;;;2.53;1.60;;;;;;;;;;2073486;28;20503;-86
2022/12/24 01:06:53;;;;;;;2.88;1.88;;;;;;;;;;2081755;28;20025;-86
2022/12/24 01:08:12;;;;;;;3.63;1.73;;;;;;;;;;2080754;28;20457;-86
2022/12/24 01:09:31;;;;;;;1.75;1.55;;;;;;;;;;2081103;28;20033;-85
2022/12/24 01:10:50;;;;;;;2.90;1.50;;;;;;;;;;2082375;28;20021;-86
2022/12/24 01:12:08;;;;;;;3.63;1.77;;;;;;;;;;2081038;28;20026;-86
2022/12/24 01:13:27;;;;;;;5.40;2.03;;;;;;;;;;2081459;28;20026;-86
2022/12/24 01:14:46;;;;;;;3.85;1.92;;;;;;;;;;2078386;28;20450;-86
2022/12/24 01:16:17;;;;;;;2.90;1.65;;;;;;;;;;2081299;28;20034;-86
2022/12/24 01:17:36;;;;;;;2.85;1.85;;;;;;;;;;2081520;28;20034;-86
2022/12/24 01:18:55;;;;;;;5.28;1.67;;;;;;;;;;2081969;28;20159;-86
2022/12/24 01:20:15;;;;;;;5.28;1.63;;;;;;;;;;2081705;28;20590;-86
2022/12/24 01:21:34;;;;;;;4.47;2.15;;;;;;;;;;2078115;28;20026;-86
2022/12/24 01:22:52;;;;;;;8.10;2.08;;;;;;;;;;2077986;28;20113;-86
2022/12/24 01:24:15;;;;;;;2.83;1.50;;;;;;;;;;2081442;28;20038;-86
2022/12/24 01:25:35;;;;;;;1.70;1.52;;;;;;;;;;2082127;28;20104;-86
2022/12/24 01:26:54;;;;;;;2.95;1.65;;;;;;;;;;2078220;28;20060;-86
2022/12/24 01:28:13;;;;;;;4.10;1.67;;;;;;;;;;2078956;28;20041;-86
2022/12/24 01:29:32;;;;;;;3.92;1.75;;;;;;;;;;2077819;28;20105;-86
2022/12/24 01:30:51;;;;;;;4.78;1.60;;;;;;;;;;2079332;28;20104;-86
2022/12/24 01:32:10;;;;;;;4.07;1.88;;;;;;;;;;2080852;28;20025;-86
2022/12/24 01:33:29;;;;;;;2.17;1.70;;;;;;;;;;2077679;28;20033;-87
2022/12/24 01:34:48;;;;;;;2.17;1.73;;;;;;;;;;2081145;28;20533;-86
2022/12/24 01:36:08;;;;;;;2.65;1.35;;;;;;;;;;2081290;28;20033;-86
2022/12/24 01:37:26;;;;;;;1.50;1.30;;;;;;;;;;2076717;28;20030;-87
2022/12/24 01:38:46;;;;;;;3.28;1.77;;;;;;;;;;2084888;28;20557;-86
2022/12/24 01:43:22;;;;;;;2.28;1.52;;;;;;;;;;2081736;28;20033;-86
2022/12/24 01:44:42;;;;;;;2.28;1.35;;;;;;;;;;2080426;28;20021;-86
2022/12/24 01:46:03;;;;;;;1.95;1.40;;;;;;;;;;2081291;28;20052;-86
2022/12/24 01:47:28;;;;;;;3.05;1.13;;;;;;;;;;2081201;28;20026;-86
2022/12/24 01:48:52;;;;;;;2.67;1.50;;;;;;;;;;2078736;28;20033;-86
2022/12/24 01:50:15;;;;;;;2.40;1.45;;;;;;;;;;2078286;28;20037;-86
2022/12/24 01:52:13;;;;;;;2.00;1.50;;;;;;;;;;2081140;28;20034;-86
2022/12/24 01:53:33;;;;;;;1.73;1.30;;;;;;;;;;2071501;28;20038;-86
2022/12/24 01:54:56;;;;;;;4.40;1.63;;;;;;;;;;2069058;28;20034;-86
2022/12/24 01:56:15;;;;;;;1.95;1.27;;;;;;;;;;2078405;28;20042;-85
2022/12/24 01:57:40;;;;;;;2.45;0.98;;;;;;;;;;2080451;28;20029;-86
2022/12/24 01:59:02;;;;;;;2.03;1.42;;;;;;;;;;2077647;28;20510;-86
2022/12/24 02:00:21;;;;;;;1.95;1.38;;;;;;;;;;2086567;28;20043;-86
2022/12/24 02:01:40;;;;;;;5.15;1.20;;;;;;;;;;2082102;28;20041;-86
2022/12/24 02:02:59;;;;;;;2.22;1.50;;;;;;;;;;2077180;28;20097;-86
2022/12/24 02:04:50;;;;;;;3.20;1.67;;;;;;;;;;2078060;28;20038;-87
2022/12/24 02:06:11;;;;;;;1.70;1.35;;;;;;;;;;2071419;28;20034;-86
2022/12/24 02:07:30;;;;;;;2.47;1.10;;;;;;;;;;2079044;28;20465;-86
2022/12/24 02:08:49;;;;;;;2.08;1.20;;;;;;;;;;2081366;28;20089;-86
2022/12/24 02:10:10;;;;;;;2.50;1.50;;;;;;;;;;2080125;28;20025;-86
2022/12/24 02:11:29;;;;;;;2.67;1.10;;;;;;;;;;2077780;28;20029;-86
2022/12/24 02:12:49;;;;;;;1.52;1.15;;;;;;;;;;2076581;28;20059;-85
2022/12/24 02:14:08;;;;;;;2.05;1.10;;;;;;;;;;2078088;28;20021;-85
2022/12/24 02:15:32;;;;;;;1.90;1.10;;;;;;;;;;2078628;28;20026;-85
2022/12/24 02:17:09;;;;;;;3.03;1.20;;;;;;;;;;2078837;28;20025;-86
2022/12/24 02:18:54;;;;;;;2.22;1.50;;;;;;;;;;2081056;28;20037;-87
2022/12/24 02:20:28;;;;;;;1.48;1.35;;;;;;;;;;2082162;28;20033;-86
2022/12/24 02:21:53;;;;;;;1.50;1.23;;;;;;;;;;2087430;28;20029;-86
2022/12/24 02:23:21;;;;;;;2.33;1.50;;;;;;;;;;2088583;28;20017;-87
2022/12/24 02:24:55;;;;;;;4.50;1.80;;;;;;;;;;2083799;28;20033;-86
2022/12/24 02:26:26;;;;;;;1.98;1.50;;;;;;;;;;2081034;28;20018;-86
2022/12/24 02:27:48;;;;;;;1.42;1.25;;;;;;;;;;2082107;28;20018;-86
2022/12/24 02:29:26;;;;;;;2.85;1.40;;;;;;;;;;2082019;28;20041;-86
2022/12/24 02:30:49;;;;;;;5.15;1.23;;;;;;;;;;2080606;28;20025;-86
2022/12/24 02:32:14;;;;;;;2.55;1.65;;;;;;;;;;2079094;28;20041;-86
2022/12/24 02:33:48;;;;;;;2.97;1.33;;;;;;;;;;2076991;28;20045;-86
2022/12/24 02:35:23;;;;;;;2.55;0.90;;;;;;;;;;2080055;28;20033;-86
2022/12/24 02:36:45;;;;;;;1.90;1.15;;;;;;;;;;2079934;28;20041;-86
2022/12/24 02:38:12;;;;;;;1.70;1.20;;;;;;;;;;2078153;28;20033;-85
2022/12/24 02:39:38;;;;;;;2.78;1.38;;;;;;;;;;2077887;28;20434;-85
2022/12/24 02:40:59;;;;;;;3.40;1.30;;;;;;;;;;2078056;28;20029;-86
2022/12/24 02:42:23;;;;;;;2.33;0.93;;;;;;;;;;2086511;28;20033;-87
2022/12/24 02:43:44;;;;;;;1.67;1.10;;;;;;;;;;2079337;28;20025;-86
2022/12/24 02:45:06;;;;;;;2.10;1.42;;;;;;;;;;2080291;28;20026;-86
2022/12/24 02:46:29;;;;;;;1.80;1.10;;;;;;;;;;2076788;28;20030;-86
2022/12/24 02:47:48;;;;;;;1.65;1.20;;;;;;;;;;2080734;28;20026;-86
2022/12/24 02:49:08;;;;;;;2.67;1.20;;;;;;;;;;2079035;28;20033;-86
2022/12/24 02:50:27;;;;;;;1.77;1.25;;;;;;;;;;2080604;28;20100;-86
2022/12/24 02:51:46;;;;;;;2.05;1.23;;;;;;;;;;2076907;28;20041;-86
2022/12/24 02:53:08;;;;;;;2.38;1.15;;;;;;;;;;2075666;28;20033;-86
2022/12/24 02:54:28;;;;;;;1.48;1.00;;;;;;;;;;2077507;28;20168;-86
2022/12/24 02:55:57;;;;;;;2.38;1.30;;;;;;;;;;2077498;28;20029;-87
2022/12/24 02:57:36;;;;;;;1.88;1.15;;;;;;;;;;2086213;28;20033;-86
2022/12/24 02:59:12;;;;;;;3.47;1.08;;;;;;;;;;2079646;28;20046;-86
2022/12/24 03:00:40;;;;;;;2.67;1.35;;;;;;;;;;2081225;28;20025;-86
2022/12/24 03:01:59;;;;;;;1.60;1.20;;;;;;;;;;2077789;28;20038;-87
2022/12/24 03:03:24;;;;;;;2.75;1.20;;;;;;;;;;2076547;28;20108;-86
2022/12/24 03:04:45;;;;;;;1.52;1.40;;;;;;;;;;2077463;28;20581;-86
2022/12/24 03:06:04;;;;;;;1.25;1.08;;;;;;;;;;2077959;28;20033;-86
2022/12/24 03:07:29;;;;;;;1.70;1.10;;;;;;;;;;2077135;28;20045;-86
2022/12/24 03:09:14;;;;;;;2.45;1.23;;;;;;;;;;2077050;28;20033;-86
2022/12/24 03:10:45;;;;;;;3.47;1.30;;;;;;;;;;2070149;28;20033;-86
2022/12/24 03:12:11;;;;;;;1.50;1.40;;;;;;;;;;2081533;28;20029;-86
2022/12/24 03:13:30;;;;;;;1.45;0.90;;;;;;;;;;2077513;28;20033;-86
2022/12/24 03:14:49;;;;;;;1.95;1.48;;;;;;;;;;2076574;28;20022;-86
2022/12/24 03:16:13;;;;;;;2.08;1.13;;;;;;;;;;2076973;28;20053;-87
2022/12/24 03:17:35;;;;;;;2.60;1.30;;;;;;;;;;2076928;28;20426;-86
2022/12/24 03:18:55;;;;;;;2.05;1.13;;;;;;;;;;2077022;28;20026;-86
2022/12/24 03:20:18;;;;;;;3.83;1.20;;;;;;;;;;2079641;28;20025;-86
2022/12/24 03:21:39;;;;;;;2.08;1.25;;;;;;;;;;2080815;28;20077;-86
2022/12/24 03:22:59;;;;;;;3.92;1.60;;;;;;;;;;2077340;28;20021;-86
2022/12/24 03:24:18;;;;;;;3.28;1.15;;;;;;;;;;2075892;28;20490;-85
2022/12/24 03:25:39;;;;;;;1.92;1.40;;;;;;;;;;2079427;28;20038;-86
2022/12/24 03:26:58;;;;;;;2.65;1.80;;;;;;;;;;2086302;28;20028;-86
2022/12/24 03:28:18;;;;;;;2.05;1.23;;;;;;;;;;2080196;28;20026;-86
2022/12/24 03:29:38;;;;;;;1.65;1.55;;;;;;;;;;2077343;28;20052;-86
2022/12/24 03:31:00;;;;;;;2.97;1.20;;;;;;;;;;2075772;28;20033;-86
2022/12/24 03:32:22;;;;;;;2.08;1.50;;;;;;;;;;2086086;28;20037;-86
2022/12/24 03:33:41;;;;;;;;;;;;;;;;;;2078189;28;20037;-86
2022/12/24 03:35:00;;;;;;;3.08;1.50;;;;;;;;;;2077351;28;19917;-86
2022/12/24 03:36:19;;;;;;;3.58;1.45;;;;;;;;;;2076646;28;20037;-86
2022/12/24 03:37:38;;;;;;;1.83;1.17;;;;;;;;;;2080748;28;20105;-86
2022/12/24 03:38:57;;;;;;;2.33;1.48;;;;;;;;;;2079737;28;20499;-87
2022/12/24 03:40:16;;;;;;;3.47;1.40;;;;;;;;;;2077524;28;20037;-86
2022/12/24 03:41:35;;;;;;;3.28;1.30;;;;;;;;;;2076966;28;20041;-86
2022/12/24 03:42:54;;;;;;;2.17;1.20;;;;;;;;;;2085263;28;20441;-86
2022/12/24 03:44:12;;;;;;;1.77;1.30;;;;;;;;;;2078890;28;20029;-86
2022/12/24 03:45:32;;;;;;;3.50;1.40;;;;;;;;;;2076620;28;20029;-86
2022/12/24 03:46:51;;;;;;;3.55;1.48;;;;;;;;;;2077579;28;20021;-86
2022/12/24 03:48:10;;;;;;;3.03;1.23;;;;;;;;;;2076554;28;20025;-86
2022/12/24 03:49:28;;;;;;;1.70;1.10;;;;;;;;;;2078060;28;20033;-86
2022/12/24 03:50:47;;;;;;;2.40;1.23;;;;;;;;;;2075926;28;20038;-86
2022/12/24 03:52:06;;;;;;;1.00;0.90;;;;;;;;;;2076494;28;20070;-86
2022/12/24 03:53:25;;;;;;;2.47;1.20;;;;;;;;;;2080250;28;20030;-86
2022/12/24 03:54:44;;;;;;;1.48;1.17;;;;;;;;;;2080577;28;20033;-87
2022/12/24 03:56:03;;;;;;;2.30;1.17;;;;;;;;;;2076748;28;20030;-86
2022/12/24 03:57:22;;;;;;;2.25;1.08;;;;;;;;;;2077020;28;20506;-86
2022/12/24 03:58:41;;;;;;;4.68;1.33;;;;;;;;;;2077084;28;20030;-86
2022/12/24 04:00:00;;;;;;;2.95;1.10;;;;;;;;;;2079752;28;20053;-86
2022/12/24 04:01:19;;;;;;;2.70;1.17;;;;;;;;;;2081151;28;20030;-87
2022/12/24 04:02:38;;;;;;;3.35;0.93;;;;;;;;;;2076941;28;20053;-86
2022/12/24 04:03:57;;;;;;;1.23;0.90;;;;;;;;;;2079525;28;20026;-86
2022/12/24 04:05:18;;;;;;;3.40;1.30;;;;;;;;;;2076721;28;20038;-85
2022/12/24 04:06:37;;;;;;;1.25;1.08;;;;;;;;;;2080727;28;20052;-86
2022/12/24 04:07:56;;;;;;;1.67;1.20;;;;;;;;;;2079481;28;20029;-86
2022/12/24 04:09:14;;;;;;;3.83;1.15;;;;;;;;;;2080608;28;20034;-86
2022/12/24 04:10:34;;;;;;;2.55;1.00;;;;;;;;;;2078459;28;20042;-85
2022/12/24 04:11:53;;;;;;;1.60;1.00;;;;;;;;;;2080767;28;20033;-86
2022/12/24 04:13:12;;;;;;;2.28;1.10;;;;;;;;;;2080251;28;20485;-86
2022/12/24 04:14:30;;;;;;;3.35;1.52;;;;;;;;;;2077180;28;20104;-86
2022/12/24 04:16:00;;;;;;;1.65;1.33;;;;;;;;;;2080812;28;20100;-86
2022/12/24 04:17:19;;;;;;;2.67;1.20;;;;;;;;;;2078733;28;20025;-86
2022/12/24 04:18:38;;;;;;;1.88;0.82;;;;;;;;;;2077436;28;20041;-86
2022/12/24 04:19:57;;;;;;;3.58;1.25;;;;;;;;;;2076639;28;20037;-86
2022/12/24 04:21:16;;;;;;;1.98;1.20;;;;;;;;;;2077574;28;20022;-86
2022/12/24 04:22:35;;;;;;;1.98;1.20;;;;;;;;;;2077050;28;20065;-86
2022/12/24 04:23:54;;;;;;;1.20;0.90;;;;;;;;;;2077762;28;20041;-86
2022/12/24 04:25:12;;;;;;;1.58;0.82;;;;;;;;;;2077113;28;20560;-86
2022/12/24 04:26:31;;;;;;;2.28;0.90;;;;;;;;;;2077867;28;20564;-86
2022/12/24 04:27:50;;;;;;;2.30;1.40;;;;;;;;;;2085120;28;20064;-86
2022/12/24 04:29:09;;;;;;;0.93;0.80;;;;;;;;;;2090685;28;20053;-86
2022/12/24 04:30:28;;;;;;;2.25;1.00;;;;;;;;;;2080598;28;20025;-87
2022/12/24 04:31:47;;;;;;;1.77;1.00;;;;;;;;;;2083217;28;20041;-87
2022/12/24 04:33:06;;;;;;;1.55;0.80;;;;;;;;;;2081054;28;20033;-86
2022/12/24 04:34:26;;;;;;;1.35;0.82;;;;;;;;;;2082888;28;20494;-87
2022/12/24 04:35:45;;;;;;;1.90;0.95;;;;;;;;;;2081475;28;20041;-86
2022/12/24 04:37:04;;;;;;;1.10;0.85;;;;;;;;;;2078838;28;20053;-86
2022/12/24 04:38:22;;;;;;;1.88;1.10;;;;;;;;;;2081214;28;20033;-86
2022/12/24 04:39:42;;;;;;;1.58;0.93;;;;;;;;;;2079696;28;20041;-86
2022/12/24 04:41:02;;;;;;;2.15;0.90;;;;;;;;;;2079865;28;20033;-86
2022/12/24 04:42:21;;;;;;;1.00;0.88;;;;;;;;;;2079861;28;20026;-86
2022/12/24 04:43:39;;;;;;;2.28;0.80;;;;;;;;;;2078443;28;20033;-86
2022/12/24 04:44:58;;;;;;;1.52;1.23;;;;;;;;;;2082271;28;20026;-86
2022/12/24 04:46:19;;;;;;;1.88;1.13;;;;;;;;;;2081465;28;20025;-87
2022/12/24 04:47:37;;;;;;;0.85;0.82;;;;;;;;;;2082498;28;20481;-85
2022/12/24 04:48:57;;;;;;;2.80;0.90;;;;;;;;;;2078757;28;20038;-86
2022/12/24 04:50:16;;;;;;;1.60;1.00;;;;;;;;;;2079106;28;21147;-87
2022/12/24 04:51:35;;;;;;;2.17;0.77;;;;;;;;;;2078187;28;20041;-86
2022/12/24 04:52:54;;;;;;;3.92;0.98;;;;;;;;;;2081862;28;20038;-86
2022/12/24 04:54:13;;;;;;;2.60;0.82;;;;;;;;;;2081392;28;20033;-87
2022/12/24 04:55:33;;;;;;;3.13;1.20;;;;;;;;;;2081972;28;20053;-86
2022/12/24 04:56:52;;;;;;;2.42;1.33;;;;;;;;;;2078731;28;20029;-87
2022/12/24 04:58:11;;;;;;;1.63;1.07;;;;;;;;;;2078942;28;20037;-86
2022/12/24 04:59:30;;;;;;;2.60;1.05;;;;;;;;;;2078392;28;20022;-86
2022/12/24 05:00:49;;;;;;;2.50;1.02;;;;;;;;;;2078792;28;20026;-87
2022/12/24 05:02:08;;;;;;;1.48;0.95;;;;;;;;;;2078586;28;20018;-86
2022/12/24 05:03:27;;;;;;;1.30;0.95;;;;;;;;;;2078029;28;20021;-86
2022/12/24 05:04:46;;;;;;;3.17;1.15;;;;;;;;;;2077831;28;20030;-86
2022/12/24 05:06:06;;;;;;;0.82;0.80;;;;;;;;;;2077049;28;20029;-86
2022/12/24 05:07:25;;;;;;;2.70;1.42;;;;;;;;;;2076439;28;20033;-87
2022/12/24 05:08:44;;;;;;;0.80;0.80;;;;;;;;;;2079185;28;20038;-86
2022/12/24 05:10:04;;;;;;;1.52;1.02;;;;;;;;;;2078158;28;20045;-87
2022/12/24 05:11:23;;;;;;;3.90;1.20;;;;;;;;;;2085665;28;20029;-87
2022/12/24 05:12:42;;;;;;;1.95;0.93;;;;;;;;;;2084087;28;20029;-87
2022/12/24 05:14:01;;;;;;;3.30;0.98;;;;;;;;;;2080880;28;20042;-86
2022/12/24 05:15:21;;;;;;;2.00;1.00;;;;;;;;;;2082342;28;20025;-87
2022/12/24 05:16:40;;;;;;;1.73;1.40;;;;;;;;;;2081143;28;20034;-87
2022/12/24 05:17:58;;;;;;;1.55;1.13;;;;;;;;;;2081679;28;20585;-84
2022/12/24 05:19:17;;;;;;;1.25;0.93;;;;;;;;;;2079075;28;20038;-87
2022/12/24 05:20:36;;;;;;;1.63;0.95;;;;;;;;;;2078327;28;20041;-86
2022/12/24 05:26:49;;;;;;;5.82;1.17;;;;;;;;;;2081693;28;20030;-87
2022/12/24 05:28:08;;;;;;;1.52;0.88;;;;;;;;;;2081292;28;20025;-86
2022/12/24 05:29:27;;;;;;;1.02;0.82;;;;;;;;;;2078574;28;20018;-87
2022/12/24 05:30:45;;;;;;;1.58;0.98;;;;;;;;;;2081092;28;20022;-86
2022/12/24 05:32:04;;;;;;;1.58;1.02;;;;;;;;;;2077915;28;20026;-87
2022/12/24 05:33:23;;;;;;;1.25;1.00;;;;;;;;;;2077990;28;20063;-87
2022/12/24 05:34:42;;;;;;;1.60;0.90;;;;;;;;;;2077575;28;20042;-86
2022/12/24 05:36:01;;;;;;;1.80;1.00;;;;;;;;;;2076993;28;20486;-86
2022/12/24 05:37:20;;;;;;;3.88;1.10;;;;;;;;;;2077582;28;20061;-86
2022/12/24 05:38:39;;;;;;;1.23;1.00;;;;;;;;;;2078666;28;20057;-85
2022/12/24 05:39:58;;;;;;;1.25;0.98;;;;;;;;;;2077841;28;20022;-86
2022/12/24 05:41:17;;;;;;;2.53;1.05;;;;;;;;;;2076744;28;20025;-87
2022/12/24 05:42:37;;;;;;;1.95;0.77;;;;;;;;;;2080772;28;20030;-86
2022/12/24 05:43:55;;;;;;;1.60;1.05;;;;;;;;;;2078756;28;20065;-86
2022/12/24 05:45:15;;;;;;;2.72;1.20;;;;;;;;;;2078138;28;20033;-87
2022/12/24 05:46:33;;;;;;;3.22;1.60;;;;;;;;;;2077176;28;20723;-86
2022/12/24 05:47:52;;;;;;;2.47;1.20;;;;;;;;;;2077449;28;20139;-86
2022/12/24 05:49:11;;;;;;;2.50;1.30;;;;;;;;;;2081500;28;20030;-86
2022/12/24 05:50:30;;;;;;;1.33;1.20;;;;;;;;;;2078341;28;20025;-86
2022/12/24 05:51:49;;;;;;;2.35;1.30;;;;;;;;;;2077418;28;20097;-86
2022/12/24 05:53:10;;;;;;;1.30;1.20;;;;;;;;;;2077622;28;20037;-86
2022/12/24 05:54:29;;;;;;;2.15;1.20;;;;;;;;;;2081392;28;20037;-87
2022/12/24 05:55:48;;;;;;;1.17;1.08;;;;;;;;;;2081373;28;20057;-86
2022/12/24 05:57:07;;;;;;;4.07;1.52;;;;;;;;;;2076292;28;20061;-86
2022/12/24 05:58:27;;;;;;;3.05;1.10;;;;;;;;;;2084602;28;20037;-86
2022/12/24 05:59:47;;;;;;;2.13;1.30;;;;;;;;;;2085603;28;20467;-86
2022/12/24 06:01:07;;;;;;;1.80;1.20;;;;;;;;;;2081006;28;20053;-86
2022/12/24 06:02:26;;;;;;;2.75;1.00;;;;;;;;;;2085891;28;20406;-86
2022/12/24 06:03:44;;;;;;;2.17;1.90;;;;;;;;;;2080341;28;20108;-86
2022/12/24 06:05:03;;;;;;;2.05;1.33;;;;;;;;;;2078038;28;20112;-85
2022/12/24 06:06:23;;;;;;;2.33;1.23;;;;;;;;;;2085950;28;20029;-86
2022/12/24 06:07:42;;;;;;;2.15;1.25;;;;;;;;;;2080959;28;20068;-86
2022/12/24 06:09:01;;;;;;;2.65;1.30;;;;;;;;;;2079967;28;20037;-85
2022/12/24 06:10:20;;;;;;;2.67;1.23;;;;;;;;;;2080011;28;20033;-85
2022/12/24 06:11:39;;;;;;;2.45;1.35;;;;;;;;;;2081440;28;20029;-85
2022/12/24 06:12:58;;;;;;;2.13;1.30;;;;;;;;;;2077563;28;20029;-86
2022/12/24 06:14:17;;;;;;;2.83;1.20;;;;;;;;;;2080831;28;20029;-87
2022/12/24 06:15:36;;;;;;;1.40;1.30;;;;;;;;;;2081268;28;20045;-85
2022/12/24 06:16:55;;;;;;;1.65;1.30;;;;;;;;;;2084992;28;20048;-86
2022/12/24 06:18:14;;;;;;;3.30;1.30;;;;;;;;;;2081080;28;20033;-86
2022/12/24 06:19:33;;;;;;;3.03;1.20;;;;;;;;;;2080929;28;20530;-86
2022/12/24 06:20:52;;;;;;;2.85;1.30;;;;;;;;;;2080455;28;20502;-86
2022/12/24 06:22:11;;;;;;;1.40;1.30;;;;;;;;;;2085825;28;20502;-86
2022/12/24 06:23:31;;;;;;;1.60;1.30;;;;;;;;;;2080392;28;20490;-86
2022/12/24 06:24:50;;;;;;;2.25;1.27;;;;;;;;;;2077428;28;20025;-86
2022/12/24 06:26:13;;;;;;;1.23;1.00;;;;;;;;;;2076609;28;20105;-86
2022/12/24 06:27:32;;;;;;;2.28;1.23;;;;;;;;;;2077082;28;20030;-85
2022/12/24 06:28:51;;;;;;;1.73;1.20;;;;;;;;;;2080024;28;20022;-86
2022/12/24 06:30:10;;;;;;;1.65;1.13;;;;;;;;;;2080744;28;20514;-86
2022/12/24 06:31:29;;;;;;;1.52;0.90;;;;;;;;;;2034319;28;1235660;-86
2022/12/24 06:32:48;;;;;;;2.92;1.38;;;;;;;;;;2077825;28;20025;-85
2022/12/24 06:34:07;;;;;;;2.50;1.27;;;;;;;;;;2077144;28;20033;-86
2022/12/24 06:35:26;;;;;;;1.92;1.30;;;;;;;;;;2078164;28;20033;-86
2022/12/24 06:36:45;;;;;;;3.13;1.58;;;;;;;;;;2077742;28;20033;-87
2022/12/24 06:38:04;;;;;;;1.70;1.42;;;;;;;;;;2077876;28;20037;-86
2022/12/24 06:39:23;;;;;;;3.28;1.10;;;;;;;;;;2076397;28;20045;-86
2022/12/24 06:40:42;;;;;;;1.52;1.33;;;;;;;;;;2077158;28;20030;-86
2022/12/24 06:42:02;;;;;;;1.73;1.33;;;;;;;;;;2075813;28;20116;-86
2022/12/24 06:43:21;;;;;;;2.85;1.33;;;;;;;;;;2077787;28;20038;-86
2022/12/24 06:44:39;;;;;;;1.35;1.05;;;;;;;;;;2081080;28;20029;-86
2022/12/24 06:45:59;;;;;;;2.38;1.35;;;;;;;;;;2082035;28;20112;-86
2022/12/24 06:47:18;;;;;;;3.13;1.15;;;;;;;;;;2077499;28;20029;-85
2022/12/24 06:48:36;;;;;;;2.75;1.17;;;;;;;;;;2076911;28;20029;-85
2022/12/24 06:49:55;;;;;;;2.75;1.30;;;;;;;;;;2078137;28;20033;-86
2022/12/24 06:51:14;;;;;;;3.65;1.92;;;;;;;;;;2078626;28;20034;-86
2022/12/24 06:52:33;;;;;;;4.55;1.67;;;;;;;;;;2076719;28;20108;-85
2022/12/24 06:53:52;;;;;;;3.22;1.52;;;;;;;;;;2078231;28;20025;-86
2022/12/24 06:55:11;;;;;;;1.80;1.38;;;;;;;;;;2077872;28;20030;-85
2022/12/24 06:56:30;;;;;;;2.17;1.42;;;;;;;;;;2082265;28;20041;-86
2022/12/24 06:57:49;;;;;;;1.58;1.48;;;;;;;;;;2079486;28;20034;-85
2022/12/24 06:59:07;;;;;;;2.10;1.60;;;;;;;;;;2077688;28;20022;-86
2022/12/24 07:00:27;;;;;;;3.92;1.35;;;;;;;;;;2076892;28;20030;-86
2022/12/24 07:01:46;;;;;;;4.00;1.73;;;;;;;;;;2086167;28;20100;-86
2022/12/24 07:03:04;;;;;;;4.05;1.60;;;;;;;;;;2083140;28;20030;-86
2022/12/24 07:04:23;;;;;;;1.52;1.42;;;;;;;;;;2081543;28;20409;-86
2022/12/24 07:05:42;;;;;;;6.30;1.27;;;;;;;;;;2080517;28;20108;-86
2022/12/24 07:07:01;;;;;;;3.38;1.35;;;;;;;;;;2080602;28;20022;-86
2022/12/24 07:08:20;;;;;;;3.58;1.63;;;;;;;;;;2076213;28;20109;-87
2022/12/24 07:09:39;;;;;;;3.40;1.40;;;;;;;;;;2080026;28;20447;-86
2022/12/24 07:10:58;;;;;;;3.30;1.50;;;;;;;;;;2079290;28;20414;-85
2022/12/24 07:12:17;;;;;;;5.15;1.63;;;;;;;;;;2078651;28;20029;-86
2022/12/24 07:13:36;;;;;;;2.05;1.45;;;;;;;;;;2076118;28;20034;-86
2022/12/24 07:14:55;;;;;;;1.92;1.60;;;;;;;;;;2081884;28;20030;-86
2022/12/24 07:16:14;;;;;;;2.42;1.58;;;;;;;;;;2077494;28;20037;-86
2022/12/24 07:17:33;;;;;;;7.07;2.10;;;;;;;;;;2077809;28;20053;-85
2022/12/24 07:18:52;;;;;;;4.00;1.50;;;;;;;;;;2076998;28;20105;-85
2022/12/24 07:20:13;;;;;;;6.18;1.63;;;;;;;;;;2078040;28;20037;-85
2022/12/24 07:21:32;;;;;;;2.30;1.58;;;;;;;;;;2077643;28;20029;-86
2022/12/24 07:22:51;;;;;;;1.83;1.70;;;;;;;;;;2077517;28;20104;-85
2022/12/24 07:24:10;;;;;;;1.88;1.60;;;;;;;;;;2079531;28;20038;-86
2022/12/24 07:25:29;;;;;;;2.83;1.50;;;;;;;;;;2077291;28;20025;-86
2022/12/24 07:26:48;;;;;;;2.53;1.60;;;;;;;;;;2077484;28;20037;-86
2022/12/24 07:28:07;;;;;;;3.50;2.20;;;;;;;;;;2076573;28;20037;-87
2022/12/24 07:29:26;;;;;;;3.30;1.80;;;;;;;;;;2085219;28;20036;-86
2022/12/24 07:30:44;;;;;;;2.08;1.70;;;;;;;;;;2080163;28;20041;-86
2022/12/24 07:32:03;;;;;;;3.47;2.03;;;;;;;;;;2085555;28;20052;-86
2022/12/24 07:33:23;;;;;;;3.05;1.60;;;;;;;;;;2080459;28;20065;-87
2022/12/24 07:34:42;;;;;;;1.92;1.73;;;;;;;;;;2076591;28;20033;-86
2022/12/24 07:36:02;;;;;;;2.58;1.65;;;;;;;;;;2077148;28;20120;-86
2022/12/24 07:37:21;;;;;;;5.25;2.20;;;;;;;;;;2077939;28;20029;-85
2022/12/24 07:38:40;;;;;;;2.63;1.90;;;;;;;;;;2075653;28;20459;-85
2022/12/24 07:39:59;;;;;;;3.75;1.90;;;;;;;;;;2081353;28;20022;-86
2022/12/24 07:41:18;;;;;;;1.90;1.70;;;;;;;;;;2080336;28;20025;-86
2022/12/24 07:42:37;;;;;;;5.00;1.67;;;;;;;;;;2080286;28;20029;-86
2022/12/24 07:43:56;;;;;;;6.13;2.05;;;;;;;;;;2079257;28;20017;-86
2022/12/24 07:45:15;;;;;;;2.28;1.83;;;;;;;;;;2077976;28;20033;-86
2022/12/24 07:46:35;;;;;;;2.85;1.70;;;;;;;;;;2077338;28;20029;-86
2022/12/24 07:47:53;;;;;;;3.92;2.35;;;;;;;;;;2084901;28;20033;-86
2022/12/24 07:49:12;;;;;;;3.90;2.20;;;;;;;;;;2080529;28;20025;-86
2022/12/24 07:50:31;;;;;;;6.05;2.20;;;;;;;;;;2077066;28;20037;-86
2022/12/24 07:51:50;;;;;;;4.38;2.20;;;;;;;;;;2080490;28;20026;-86
2022/12/24 07:53:09;;;;;;;3.55;2.28;;;;;;;;;;2076824;28;20038;-86
2022/12/24 07:54:28;;;;;;;4.88;2.00;;;;;;;;;;2076569;28;20422;-86
2022/12/24 07:55:47;;;;;;;2.03;1.85;;;;;;;;;;2077326;28;20033;-86
2022/12/24 07:57:06;;;;;;;5.68;1.90;;;;;;;;;;2077954;28;20033;-86
2022/12/24 07:58:25;;;;;;;7.20;2.05;;;;;;;;;;2078032;28;20026;-86
2022/12/24 07:59:44;;;;;;;2.38;1.98;;;;;;;;;;2080101;28;20041;-86
2022/12/24 08:01:02;;;;;;;3.67;2.28;;;;;;;;;;2077545;28;20116;-86
2022/12/24 08:02:21;;;;;;;2.80;1.98;;;;;;;;;;2080650;28;20026;-87
2022/12/24 08:03:40;;;;;;;3.28;2.08;;;;;;;;;;2079165;28;20962;-86
2022/12/24 08:04:59;;;;;;;2.40;1.83;;;;;;;;;;2079527;28;20033;-86
2022/12/24 08:06:17;;;;;;;2.80;1.95;;;;;;;;;;2080231;28;20108;-86
2022/12/24 08:07:39;;;;;;;3.53;2.05;;;;;;;;;;2080413;28;20026;-86
2022/12/24 08:08:58;;;;;;;2.97;2.08;;;;;;;;;;2080270;28;20033;-86
2022/12/24 08:10:17;;;;;;;1.88;1.77;;;;;;;;;;2080452;28;20064;-87
2022/12/24 08:11:36;;;;;;;4.97;2.20;;;;;;;;;;2075727;28;20037;-86